createdAt,value
2022-09-17T00:01:31.550Z,0.80
2022-09-17T00:04:04.520Z,1.00
2022-09-17T00:06:34.627Z,1.00
2022-09-17T00:09:03.289Z,0.82
2022-09-17T00:11:32.919Z,1.13
2022-09-17T00:14:02.898Z,1.30
2022-09-17T00:16:33.145Z,1.20
2022-09-17T00:19:03.304Z,1.13
2022-09-17T00:21:31.557Z,1.40
2022-09-17T00:24:01.297Z,1.20
2022-09-17T00:26:30.416Z,1.50
2022-09-17T00:28:59.342Z,1.60
2022-09-17T00:31:28.923Z,1.42
2022-09-17T00:33:56.911Z,1.38
2022-09-17T00:36:26.821Z,1.35
2022-09-17T00:38:57.961Z,1.20
2022-09-17T00:41:28.150Z,1.50
2022-09-17T00:43:58.097Z,1.40
2022-09-17T00:46:34.069Z,1.20
2022-09-17T00:49:04.204Z,1.17
2022-09-17T00:51:37.499Z,1.27
2022-09-17T00:54:08.999Z,1.20
2022-09-17T00:56:41.043Z,1.30
2022-09-17T00:59:09.279Z,1.17
2022-09-17T01:01:37.594Z,1.40
2022-09-17T01:04:05.509Z,1.00
2022-09-17T01:06:42.626Z,1.10
2022-09-17T01:09:29.338Z,1.00
2022-09-17T01:12:17.143Z,1.52
2022-09-17T01:14:58.626Z,1.40
2022-09-17T01:17:31.266Z,1.20
2022-09-17T01:20:20.047Z,1.30
2022-09-17T01:23:00.528Z,1.00
2022-09-17T01:25:38.445Z,1.00
2022-09-17T01:28:29.973Z,1.05
2022-09-17T01:31:25.154Z,1.08
2022-09-17T01:34:02.978Z,1.13
2022-09-17T01:36:55.703Z,1.02
2022-09-17T01:39:33.636Z,1.42
2022-09-17T01:42:11.543Z,1.13
2022-09-17T01:44:45.969Z,1.40
2022-09-17T01:47:21.320Z,1.20
2022-09-17T01:49:51.948Z,1.20
2022-09-17T01:52:21.571Z,1.60
2022-09-17T01:54:54.832Z,1.00
2022-09-17T01:57:28.736Z,1.00
2022-09-17T02:00:01.953Z,1.00
2022-09-17T02:02:38.840Z,1.48
2022-09-17T02:05:09.926Z,1.60
2022-09-17T02:07:43.790Z,1.70
2022-09-17T02:10:15.048Z,1.55
2022-09-17T02:12:47.327Z,1.50
2022-09-17T02:15:19.205Z,1.48
2022-09-17T02:17:52.885Z,1.23
2022-09-17T02:20:25.630Z,1.58
2022-09-17T02:22:58.758Z,1.88
2022-09-17T02:25:32.916Z,1.90
2022-09-17T02:28:06.230Z,1.60
2022-09-17T02:30:34.138Z,1.80
2022-09-17T02:33:05.870Z,1.67
2022-09-17T02:35:34.634Z,2.00
2022-09-17T02:38:02.694Z,2.07
2022-09-17T02:40:36.751Z,1.80
2022-09-17T02:43:12.172Z,2.05
2022-09-17T02:45:53.378Z,2.30
2022-09-17T02:48:38.430Z,2.15
2022-09-17T02:51:19.185Z,2.10
2022-09-17T02:53:58.226Z,2.10
2022-09-17T02:56:35.250Z,1.98
2022-09-17T02:59:12.843Z,2.05
2022-09-17T03:01:45.844Z,1.80
2022-09-17T03:04:17.985Z,1.87
2022-09-17T03:06:48.321Z,2.00
2022-09-17T03:09:17.112Z,1.83
2022-09-17T03:11:45.724Z,1.70
2022-09-17T03:14:13.830Z,1.90
2022-09-17T03:16:41.768Z,2.10
2022-09-17T03:19:09.629Z,2.22
2022-09-17T03:21:39.142Z,1.73
2022-09-17T03:24:08.210Z,1.90
2022-09-17T03:26:36.064Z,1.70
2022-09-17T03:29:04.060Z,1.50
2022-09-17T03:31:32.316Z,1.83
2022-09-17T03:34:00.021Z,1.75
2022-09-17T03:36:27.915Z,1.90
2022-09-17T03:38:58.038Z,1.75
2022-09-17T03:41:26.377Z,1.90
2022-09-17T03:43:54.402Z,1.52
2022-09-17T03:46:22.974Z,1.70
2022-09-17T03:48:50.943Z,1.92
2022-09-17T03:51:19.191Z,2.22
2022-09-17T03:53:47.031Z,1.70
2022-09-17T03:56:16.545Z,2.17
2022-09-17T03:58:44.408Z,2.40
2022-09-17T04:01:13.732Z,2.10
2022-09-17T04:03:41.713Z,2.55
2022-09-17T04:06:09.623Z,1.80
2022-09-17T04:08:37.628Z,2.20
2022-09-17T04:11:05.719Z,1.90
2022-09-17T04:13:34.959Z,1.88
2022-09-17T04:16:03.603Z,2.05
2022-09-17T04:18:31.334Z,2.40
2022-09-17T04:20:59.433Z,1.98
2022-09-17T04:23:27.296Z,2.20
2022-09-17T04:25:55.324Z,1.73
2022-09-17T04:28:23.171Z,2.13
2022-09-17T04:30:52.986Z,2.30
2022-09-17T04:33:21.131Z,1.98
2022-09-17T04:35:49.320Z,1.90
2022-09-17T04:38:18.924Z,2.42
2022-09-17T04:40:47.305Z,1.90
2022-09-17T04:47:01.594Z,1.83
2022-09-17T04:49:31.036Z,1.65
2022-09-17T04:51:58.809Z,2.05
2022-09-17T04:54:26.854Z,1.83
2022-09-17T04:56:54.715Z,2.17
2022-09-17T04:59:22.368Z,2.00
2022-09-17T05:01:50.672Z,2.08
2022-09-17T05:04:19.667Z,1.90
2022-09-17T05:06:47.291Z,1.67
2022-09-17T05:09:15.133Z,2.00
2022-09-17T05:11:43.415Z,2.00
2022-09-17T05:14:11.236Z,2.40
2022-09-17T05:16:39.103Z,2.00
2022-09-17T05:19:08.257Z,2.15
2022-09-17T05:21:37.289Z,1.87
2022-09-17T05:24:05.096Z,1.48
2022-09-17T05:26:33.141Z,1.70
2022-09-17T05:29:00.846Z,1.80
2022-09-17T05:31:28.789Z,1.73
2022-09-17T05:33:56.931Z,1.80
2022-09-17T05:36:24.940Z,1.83
2022-09-17T05:38:54.549Z,2.25
2022-09-17T05:41:22.577Z,1.67
2022-09-17T05:43:51.442Z,1.27
2022-09-17T05:46:19.753Z,1.53
2022-09-17T05:48:47.525Z,1.35
2022-09-17T05:51:15.292Z,1.70
2022-09-17T05:53:42.810Z,1.65
2022-09-17T05:56:12.776Z,1.95
2022-09-17T05:58:40.547Z,1.70
2022-09-17T06:01:08.637Z,1.75
2022-09-17T06:03:36.868Z,2.40
2022-09-17T06:06:04.884Z,2.15
2022-09-17T06:08:33.082Z,1.90
2022-09-17T06:11:05.034Z,1.03
2022-09-17T06:13:35.182Z,1.05
2022-09-17T06:16:04.440Z,1.05
2022-09-17T06:18:32.865Z,1.00
2022-09-17T06:21:02.840Z,0.90
2022-09-17T06:23:35.291Z,0.90
2022-09-17T06:26:03.899Z,1.00
2022-09-17T06:28:31.991Z,1.40
2022-09-17T06:31:04.943Z,1.10
2022-09-17T06:33:33.551Z,1.45
2022-09-17T06:36:03.185Z,0.97
2022-09-17T06:38:32.853Z,0.65
2022-09-17T06:41:00.589Z,0.90
2022-09-17T06:43:28.726Z,0.70
2022-09-17T06:45:58.197Z,1.60
2022-09-17T06:48:28.372Z,1.00
2022-09-17T06:50:56.676Z,0.50
2022-09-17T06:53:25.401Z,0.65
2022-09-17T06:55:53.096Z,0.50
2022-09-17T06:58:20.821Z,0.52
2022-09-17T07:00:48.809Z,0.50
2022-09-17T07:03:21.182Z,0.43
2022-09-17T07:05:52.203Z,0.52
2022-09-17T07:08:20.079Z,0.30
2022-09-17T07:10:48.119Z,0.47
2022-09-17T07:13:16.069Z,0.70
2022-09-17T07:15:44.128Z,0.45
2022-09-17T07:18:13.253Z,0.40
2022-09-17T07:20:41.086Z,0.50
2022-09-17T07:23:10.427Z,0.50
2022-09-17T07:25:38.415Z,0.40
2022-09-17T07:28:06.013Z,0.45
2022-09-17T07:30:33.800Z,0.43
2022-09-17T07:33:02.485Z,0.30
2022-09-17T07:35:30.472Z,0.35
2022-09-17T07:37:58.278Z,0.30
2022-09-17T07:40:27.867Z,0.30
2022-09-17T07:42:58.581Z,1.60
2022-09-17T07:45:26.432Z,1.70
2022-09-17T07:47:54.440Z,1.45
2022-09-17T07:50:22.335Z,0.40
2022-09-17T07:52:50.820Z,0.52
2022-09-17T07:55:18.577Z,0.25
2022-09-17T07:57:53.579Z,0.63
2022-09-17T08:00:21.454Z,0.30
2022-09-17T08:02:54.245Z,0.30
2022-09-17T08:05:22.407Z,0.70
2022-09-17T08:07:51.694Z,0.70
2022-09-17T08:10:21.575Z,0.63
2022-09-17T08:12:49.507Z,0.80
2022-09-17T08:15:19.497Z,1.33
2022-09-17T08:17:47.872Z,0.52
2022-09-17T08:20:16.950Z,0.60
2022-09-17T08:22:49.860Z,0.30
2022-09-17T08:25:18.465Z,0.38
2022-09-17T08:27:46.062Z,0.60
2022-09-17T08:30:14.287Z,0.28
2022-09-17T08:32:43.468Z,0.32
2022-09-17T08:35:12.058Z,0.40
2022-09-17T08:37:39.808Z,0.60
2022-09-17T08:40:10.808Z,0.50
2022-09-17T08:42:43.346Z,1.15
2022-09-17T08:45:18.482Z,0.77
2022-09-17T08:47:48.399Z,1.20
2022-09-17T08:50:19.348Z,0.98
2022-09-17T08:53:07.752Z,1.10
2022-09-17T08:55:41.930Z,2.63
2022-09-17T08:58:29.515Z,1.70
2022-09-17T09:01:06.971Z,1.85
2022-09-17T09:03:52.556Z,0.93
2022-09-17T09:06:24.372Z,1.80
2022-09-17T09:08:59.320Z,1.52
2022-09-17T09:11:31.068Z,1.00
2022-09-17T09:14:05.558Z,1.20
2022-09-17T09:16:35.211Z,2.67
2022-09-17T09:19:18.878Z,2.27
2022-09-17T09:21:57.225Z,1.67
2022-09-17T09:24:28.825Z,1.40
2022-09-17T09:27:04.343Z,1.25
2022-09-17T09:29:42.326Z,1.40
2022-09-17T09:32:23.963Z,1.77
2022-09-17T09:34:56.699Z,1.30
2022-09-17T09:37:28.209Z,1.65
2022-09-17T09:40:01.973Z,1.45
2022-09-17T09:42:33.568Z,1.52
2022-09-17T09:45:05.485Z,1.20
2022-09-17T09:47:51.619Z,1.58
2022-09-17T09:50:54.758Z,1.40
2022-09-17T09:53:33.373Z,1.63
2022-09-17T09:56:16.751Z,1.67
2022-09-17T09:58:44.620Z,1.50
2022-09-17T10:01:15.184Z,1.55
2022-09-17T10:03:46.421Z,1.45
2022-09-17T10:06:17.343Z,1.60
2022-09-17T10:09:14.035Z,1.15
2022-09-17T10:11:42.508Z,1.40
2022-09-17T10:14:25.820Z,1.13
2022-09-17T10:17:13.099Z,1.75
2022-09-17T10:19:41.533Z,1.60
2022-09-17T10:22:30.153Z,2.00
2022-09-17T10:25:00.533Z,1.37
2022-09-17T10:27:29.329Z,2.65
2022-09-17T10:30:04.629Z,1.92
2022-09-17T10:32:32.519Z,1.95
2022-09-17T10:35:04.915Z,3.08
2022-09-17T10:37:42.712Z,2.57
2022-09-17T10:40:32.993Z,1.63
2022-09-17T10:43:23.508Z,1.63
2022-09-17T10:46:00.944Z,1.80
2022-09-17T10:48:32.748Z,2.25
2022-09-17T10:51:03.124Z,1.70
2022-09-17T10:53:32.651Z,2.40
2022-09-17T10:56:11.595Z,1.98
2022-09-17T10:58:52.520Z,1.30
2022-09-17T11:01:30.627Z,1.30
2022-09-17T11:04:18.328Z,0.83
2022-09-17T11:06:57.738Z,1.50
2022-09-17T11:09:36.735Z,1.20
2022-09-17T11:12:22.016Z,1.30
2022-09-17T11:14:55.798Z,0.95
2022-09-17T11:17:45.071Z,1.53
2022-09-17T11:20:25.169Z,0.90
2022-09-17T11:23:05.180Z,1.02
2022-09-17T11:25:45.674Z,1.77
2022-09-17T11:28:25.152Z,2.92
2022-09-17T11:31:07.490Z,1.83
2022-09-17T11:33:55.862Z,2.35
2022-09-17T11:36:27.586Z,1.17
2022-09-17T11:38:59.316Z,1.20
2022-09-17T11:41:34.557Z,1.23
2022-09-17T11:44:10.238Z,2.00
2022-09-17T11:46:42.052Z,1.52
2022-09-17T11:49:15.544Z,0.80
2022-09-17T11:51:48.037Z,0.82
2022-09-17T11:54:23.158Z,1.20
2022-09-17T11:56:54.938Z,1.40
2022-09-17T11:59:31.848Z,2.00
2022-09-17T12:02:04.265Z,1.70
2022-09-17T12:04:44.054Z,1.35
2022-09-17T12:07:23.715Z,1.65
2022-09-17T12:09:56.626Z,1.43
2022-09-17T12:12:48.288Z,1.42
2022-09-17T12:15:21.734Z,1.27
2022-09-17T12:18:14.272Z,1.10
2022-09-17T12:20:46.747Z,1.30
2022-09-17T12:23:18.294Z,1.27
2022-09-17T12:25:54.130Z,1.15
2022-09-17T12:28:33.215Z,0.95
2022-09-17T12:31:05.866Z,0.93
2022-09-17T12:33:38.177Z,0.98
2022-09-17T12:36:28.771Z,2.40
2022-09-17T12:39:29.974Z,1.30
2022-09-17T12:42:08.317Z,0.90
2022-09-17T12:47:56.204Z,1.05
2022-09-17T12:50:35.894Z,0.95
2022-09-17T12:53:24.347Z,0.60
2022-09-17T12:56:03.391Z,1.13
2022-09-17T12:58:55.138Z,0.87
2022-09-17T13:01:28.844Z,0.70
2022-09-17T13:04:06.180Z,0.95
2022-09-17T13:07:06.688Z,1.15
2022-09-17T13:09:47.090Z,1.30
2022-09-17T13:12:28.306Z,1.20
2022-09-17T13:15:18.555Z,1.30
2022-09-17T13:18:12.771Z,1.70
2022-09-17T13:20:55.149Z,1.20
2022-09-17T13:23:34.340Z,1.40
2022-09-17T13:26:05.509Z,1.30
2022-09-17T13:28:47.434Z,2.00
2022-09-17T13:31:23.487Z,1.50
2022-09-17T13:33:56.575Z,0.88
2022-09-17T13:36:43.883Z,1.30
2022-09-17T13:39:33.307Z,0.80
2022-09-17T13:42:05.841Z,1.00
2022-09-17T13:44:36.170Z,0.75
2022-09-17T13:47:15.309Z,0.70
2022-09-17T13:49:52.722Z,1.40
2022-09-17T13:52:33.800Z,1.20
2022-09-17T13:55:03.513Z,1.20
2022-09-17T13:57:34.376Z,0.40
2022-09-17T14:00:03.428Z,0.65
2022-09-17T14:02:36.596Z,0.50
2022-09-17T14:05:32.210Z,0.27
2022-09-17T14:08:29.422Z,0.40
2022-09-17T14:10:59.985Z,0.35
2022-09-17T14:13:41.382Z,0.95
2022-09-17T14:16:36.004Z,0.75
2022-09-17T14:19:20.538Z,0.60
2022-09-17T14:22:00.733Z,0.40
2022-09-17T14:24:36.481Z,0.38
2022-09-17T14:27:22.630Z,0.40
2022-09-17T14:30:05.538Z,0.30
2022-09-17T14:32:43.444Z,1.53
2022-09-17T14:35:21.046Z,1.05
2022-09-17T14:37:55.153Z,0.73
2022-09-17T14:40:25.485Z,0.63
2022-09-17T14:42:57.705Z,0.75
2022-09-17T14:45:29.211Z,1.43
2022-09-17T14:48:20.295Z,0.80
2022-09-17T14:50:48.215Z,2.60
2022-09-17T14:53:18.353Z,1.00
2022-09-17T14:55:48.932Z,0.73
2022-09-17T14:58:32.391Z,1.00
2022-09-17T15:01:00.592Z,0.82
2022-09-17T15:03:29.376Z,1.05
2022-09-17T15:05:57.478Z,0.68
2022-09-17T15:08:28.146Z,0.93
2022-09-17T15:11:00.363Z,1.50
2022-09-17T15:13:31.007Z,1.83
2022-09-17T15:16:02.725Z,1.60
2022-09-17T15:18:43.663Z,1.05
2022-09-17T15:21:23.617Z,1.30
2022-09-17T15:23:54.998Z,1.20
2022-09-17T15:26:31.513Z,0.82
2022-09-17T15:29:01.120Z,1.00
2022-09-17T15:31:31.297Z,1.20
2022-09-17T15:34:00.967Z,1.10
2022-09-17T15:36:30.251Z,1.60
2022-09-17T15:38:58.451Z,1.15
2022-09-17T15:41:31.263Z,1.10
2022-09-17T15:44:28.913Z,0.90
2022-09-17T15:46:58.033Z,0.90
2022-09-17T15:49:29.840Z,1.10
2022-09-17T15:52:31.643Z,2.10
2022-09-17T15:54:59.711Z,1.60
2022-09-17T15:57:31.667Z,1.27
2022-09-17T16:00:08.904Z,1.70
2022-09-17T16:02:37.015Z,1.30
2022-09-17T16:05:55.630Z,1.40
2022-09-17T16:08:25.918Z,1.45
2022-09-17T16:10:54.191Z,1.30
2022-09-17T16:13:28.458Z,1.55
2022-09-17T16:15:57.532Z,1.80
2022-09-17T16:18:26.069Z,1.70
2022-09-17T16:20:53.879Z,1.80
2022-09-17T16:23:21.712Z,1.67
2022-09-17T16:25:50.242Z,3.45
2022-09-17T16:28:21.047Z,1.90
2022-09-17T16:30:50.958Z,2.33
2022-09-17T16:33:19.847Z,1.63
2022-09-17T16:35:47.653Z,1.48
2022-09-17T16:38:15.916Z,1.40
2022-09-17T16:40:45.239Z,3.00
2022-09-17T16:43:13.384Z,1.95
2022-09-17T16:45:41.386Z,2.67
2022-09-17T16:48:10.660Z,3.53
2022-09-17T16:50:42.084Z,2.70
2022-09-17T16:53:10.144Z,2.30
2022-09-17T16:55:38.152Z,2.65
2022-09-17T16:58:06.049Z,3.05
2022-09-17T17:00:34.695Z,2.20
2022-09-17T17:03:02.651Z,3.00
2022-09-17T17:05:38.119Z,3.60
2022-09-17T17:08:06.993Z,3.30
2022-09-17T17:10:35.406Z,3.50
2022-09-17T17:13:03.281Z,3.05
2022-09-17T17:15:31.767Z,2.17
2022-09-17T17:17:59.668Z,1.83
2022-09-17T17:20:27.700Z,1.77
2022-09-17T17:22:57.981Z,2.25
2022-09-17T17:25:27.246Z,3.25
2022-09-17T17:27:55.164Z,2.25
2022-09-17T17:30:23.297Z,2.17
2022-09-17T17:32:54.321Z,1.35
2022-09-17T17:35:22.371Z,1.45
2022-09-17T17:37:50.899Z,2.08
2022-09-17T17:40:20.275Z,1.50
2022-09-17T17:42:53.203Z,1.40
2022-09-17T17:45:21.427Z,1.42
2022-09-17T17:47:49.308Z,1.13
2022-09-17T17:50:17.479Z,1.17
2022-09-17T17:52:48.082Z,1.00
2022-09-17T17:55:16.882Z,1.27
2022-09-17T17:57:46.166Z,1.30
2022-09-17T18:00:16.870Z,1.60
2022-09-17T18:02:44.862Z,1.90
2022-09-17T18:05:13.590Z,2.15
2022-09-17T18:07:41.765Z,2.43
2022-09-17T18:10:10.402Z,2.47
2022-09-17T18:12:38.445Z,2.20
2022-09-17T18:15:09.390Z,2.58
2022-09-17T18:17:37.554Z,1.80
2022-09-17T18:20:06.205Z,2.33
2022-09-17T18:22:34.305Z,2.20
2022-09-17T18:25:02.320Z,1.77
2022-09-17T18:27:30.350Z,1.27
2022-09-17T18:29:58.424Z,1.60
2022-09-17T18:32:28.341Z,1.23
2022-09-17T18:34:56.709Z,1.50
2022-09-17T18:37:24.440Z,1.52
2022-09-17T18:39:58.314Z,1.95
2022-09-17T18:42:27.226Z,1.85
2022-09-17T18:44:55.494Z,2.10
2022-09-17T18:47:23.798Z,1.85
2022-09-17T18:49:53.110Z,1.55
2022-09-17T18:52:21.264Z,2.65
2022-09-17T18:54:51.613Z,2.78
2022-09-17T18:57:19.434Z,1.67
2022-09-17T18:59:47.634Z,1.67
2022-09-17T19:02:15.694Z,1.10
2022-09-17T19:04:44.028Z,0.80
2022-09-17T19:07:13.573Z,1.02
2022-09-17T19:09:41.539Z,0.83
2022-09-17T19:12:09.471Z,0.75
2022-09-17T19:14:37.470Z,0.90
2022-09-17T19:17:05.115Z,1.92
2022-09-17T19:19:32.916Z,1.90
2022-09-17T19:22:00.863Z,1.40
2022-09-17T19:24:30.191Z,1.55
2022-09-17T19:26:58.848Z,0.90
2022-09-17T19:29:27.494Z,0.75
2022-09-17T19:31:55.387Z,1.08
2022-09-17T19:34:23.183Z,0.70
2022-09-17T19:36:52.266Z,0.95
2022-09-17T19:39:20.314Z,0.80
2022-09-17T19:41:49.656Z,0.60
2022-09-17T19:44:18.114Z,0.88
2022-09-17T19:46:47.096Z,0.83
2022-09-17T19:49:15.473Z,0.55
2022-09-17T19:51:46.150Z,0.60
2022-09-17T19:54:14.164Z,0.57
2022-09-17T19:56:42.280Z,0.60
2022-09-17T19:59:11.974Z,0.40
2022-09-17T20:01:40.300Z,0.40
2022-09-17T20:04:12.390Z,0.85
2022-09-17T20:06:40.334Z,0.57
2022-09-17T20:09:08.569Z,0.60
2022-09-17T20:11:36.098Z,0.93
2022-09-17T20:14:06.605Z,0.47
2022-09-17T20:16:38.828Z,0.32
2022-09-17T20:19:07.820Z,0.50
2022-09-17T20:21:36.145Z,0.60
2022-09-17T20:24:04.375Z,0.50
2022-09-17T20:26:32.399Z,2.20
2022-09-17T20:29:00.417Z,2.10
2022-09-17T20:31:30.213Z,0.70
2022-09-17T20:34:01.662Z,0.50
2022-09-17T20:36:33.273Z,0.67
2022-09-17T20:39:22.325Z,0.40
2022-09-17T20:41:49.762Z,0.47
2022-09-17T20:44:18.562Z,0.70
2022-09-17T20:46:47.140Z,0.88
2022-09-17T20:49:16.795Z,0.80
2022-09-17T20:51:44.804Z,0.70
2022-09-17T20:54:13.096Z,0.82
2022-09-17T20:56:40.828Z,0.50
2022-09-17T20:59:14.538Z,0.50
2022-09-17T21:01:45.588Z,0.50
2022-09-17T21:04:20.343Z,0.40
2022-09-17T21:06:52.170Z,0.45
2022-09-17T21:09:20.254Z,0.60
2022-09-17T21:11:49.858Z,0.40
2022-09-17T21:14:19.439Z,0.23
2022-09-17T21:16:50.440Z,0.30
2022-09-17T21:19:21.528Z,0.30
2022-09-17T21:21:51.885Z,0.43
2022-09-17T21:24:20.087Z,0.25
2022-09-17T21:26:47.773Z,0.27
2022-09-17T21:29:17.212Z,0.40
2022-09-17T21:31:46.535Z,0.40
2022-09-17T21:34:16.258Z,0.30
2022-09-17T21:36:48.526Z,0.30
2022-09-17T21:39:19.128Z,0.30
2022-09-17T21:41:48.008Z,0.20
2022-09-17T21:44:17.792Z,0.40
2022-09-17T21:46:46.068Z,0.30
2022-09-17T21:49:16.361Z,0.20
2022-09-17T21:51:46.157Z,0.13
2022-09-17T21:54:17.127Z,0.30
2022-09-17T21:56:46.909Z,0.20
2022-09-17T21:59:16.401Z,0.45
2022-09-17T22:01:47.257Z,0.22
2022-09-17T22:04:17.276Z,0.40
2022-09-17T22:06:48.942Z,0.22
2022-09-17T22:09:19.253Z,0.30
2022-09-17T22:11:47.918Z,0.50
2022-09-17T22:14:19.844Z,0.20
2022-09-17T22:16:50.531Z,0.27
2022-09-17T22:19:20.051Z,0.20
2022-09-17T22:21:51.300Z,0.25
2022-09-17T22:24:21.023Z,0.20
2022-09-17T22:26:56.857Z,0.25
2022-09-17T22:29:27.074Z,0.10
2022-09-17T22:31:55.340Z,0.20
2022-09-17T22:34:25.477Z,0.20
2022-09-17T22:36:54.861Z,0.20
2022-09-17T22:39:22.897Z,0.20
2022-09-17T22:41:51.432Z,0.37
2022-09-17T22:44:21.541Z,0.40
2022-09-17T22:46:51.612Z,0.20
2022-09-17T22:49:20.632Z,0.20
2022-09-17T22:51:48.936Z,0.30
2022-09-17T22:54:20.486Z,0.20
2022-09-17T22:56:49.168Z,0.20
2022-09-17T22:59:18.374Z,0.25
2022-09-17T23:01:46.851Z,0.20
2022-09-17T23:04:14.935Z,0.40
2022-09-17T23:06:43.395Z,0.37
2022-09-17T23:09:13.864Z,0.30
2022-09-17T23:11:44.006Z,0.25
2022-09-17T23:14:17.109Z,0.43
2022-09-17T23:16:49.390Z,0.30
2022-09-17T23:19:19.580Z,0.30
2022-09-17T23:21:48.015Z,0.47
2022-09-17T23:24:19.474Z,0.28
2022-09-17T23:26:49.270Z,0.22
2022-09-17T23:29:17.428Z,0.40
2022-09-17T23:31:45.977Z,0.20
2022-09-17T23:34:13.855Z,0.25
2022-09-17T23:36:41.696Z,0.20
2022-09-17T23:39:12.099Z,0.30
2022-09-17T23:41:43.526Z,0.35
2022-09-17T23:44:15.734Z,0.30
2022-09-17T23:46:45.592Z,0.40
2022-09-17T23:49:14.856Z,0.25
2022-09-17T23:51:43.454Z,0.25
2022-09-17T23:54:12.132Z,0.35
2022-09-17T23:56:40.321Z,0.20
2022-09-17T23:59:08.552Z,0.40
